NGZ weather

CLOSED Alameda Naval Air Station
Alameda, California, United States

Public forecast

Using degrees Fahrenheit for public forecast. Weather courtesy of forecast.io.

Closest aviation weather report (METAR) to Alameda Naval Air Station

Closest report is Metropolitan Oakland International Airport, 6.2 nm (11.5 km) SE. Retrieved 2019/10/20 01:53 UTC (1 hour ago):

KOAK 200153Z 26008KT 10SM FEW006 BKN008 OVC010 15/12 A3005 RMK AO2 SLP175 T01500122

Closest aviation forecast (TAF) to Alameda Naval Air Station

Closest forecast is Metropolitan Oakland International Airport, 6.2 nm (11.5 km) SE. Retrieved 2019-10-20 00:33 UTC (2 hours ago):

TAF KOAK 192331Z 2000/2106 27010KT P6SM BKN020 FM200300 28008KT P6SM SCT025 SCT040 FM200900 29006KT P6SM FEW030 FM201200 31004KT P6SM FEW025 FM202200 28010KT P6SM SKC